createdAt,value
2017-12-20T00:01:03.141Z,12.60
2017-12-20T00:03:30.591Z,16.67
2017-12-20T00:05:58.045Z,17.13
2017-12-20T00:08:25.521Z,13.63
2017-12-20T00:10:52.984Z,18.37
2017-12-20T00:13:20.478Z,20.37
2017-12-20T00:15:47.947Z,12.93
2017-12-20T00:18:15.428Z,17.80
2017-12-20T00:20:42.898Z,10.53
2017-12-20T00:23:10.377Z,14.07
2017-12-20T00:25:37.827Z,11.40
2017-12-20T00:28:05.309Z,13.03
2017-12-20T00:30:32.791Z,11.13
2017-12-20T00:33:00.257Z,14.27
2017-12-20T00:35:27.720Z,15.80
2017-12-20T00:37:55.198Z,14.87
2017-12-20T00:40:22.648Z,9.77
2017-12-20T00:42:50.117Z,10.13
2017-12-20T00:45:17.624Z,10.47
2017-12-20T00:47:45.094Z,11.53
2017-12-20T00:50:12.570Z,7.93
2017-12-20T00:52:40.035Z,8.03
2017-12-20T00:55:07.471Z,9.40
2017-12-20T00:57:34.915Z,9.77
2017-12-20T01:00:02.414Z,11.70
2017-12-20T01:02:29.862Z,11.53
2017-12-20T01:04:57.335Z,11.80
2017-12-20T01:07:24.788Z,9.67
2017-12-20T01:09:52.274Z,9.20
2017-12-20T01:12:19.734Z,9.23
2017-12-20T01:14:47.224Z,8.57
2017-12-20T01:17:14.673Z,8.50
2017-12-20T01:19:42.156Z,15.90
2017-12-20T01:22:09.611Z,7.13
2017-12-20T01:24:37.088Z,7.90
2017-12-20T01:27:04.544Z,7.70
2017-12-20T01:29:32.048Z,7.33
2017-12-20T01:31:59.502Z,10.33
2017-12-20T01:34:26.951Z,12.83
2017-12-20T01:36:54.484Z,7.70
2017-12-20T01:39:21.932Z,6.27
2017-12-20T01:41:49.423Z,8.97
2017-12-20T01:44:17.725Z,10.67
2017-12-20T01:46:45.204Z,7.23
2017-12-20T01:49:12.671Z,8.00
2017-12-20T01:51:40.143Z,7.23
2017-12-20T01:54:07.605Z,11.30
2017-12-20T01:56:35.078Z,13.43
2017-12-20T01:59:02.548Z,6.70
2017-12-20T02:01:30.021Z,8.37
2017-12-20T02:03:57.487Z,7.37
2017-12-20T02:06:24.968Z,9.80
2017-12-20T02:08:52.420Z,7.47
2017-12-20T02:11:19.872Z,9.90
2017-12-20T02:13:47.338Z,8.33
2017-12-20T02:16:14.787Z,14.93
2017-12-20T02:18:42.251Z,9.87
2017-12-20T02:21:09.760Z,9.50
2017-12-20T02:23:37.224Z,8.07
2017-12-20T02:26:04.672Z,13.27
2017-12-20T02:28:32.140Z,11.30
2017-12-20T02:30:59.694Z,12.67
2017-12-20T02:33:29.940Z,11.60
2017-12-20T02:35:57.400Z,11.13
2017-12-20T02:38:36.915Z,11.47
2017-12-20T02:41:08.952Z,12.77
2017-12-20T02:43:37.248Z,14.10
2017-12-20T02:46:04.708Z,11.33
2017-12-20T02:48:32.171Z,8.87
2017-12-20T02:50:59.625Z,11.63
2017-12-20T02:53:27.070Z,8.13
2017-12-20T02:55:54.541Z,9.33
2017-12-20T02:58:21.997Z,9.80
2017-12-20T03:00:49.463Z,12.80
2017-12-20T03:03:17.003Z,11.60
2017-12-20T03:05:44.473Z,9.67
2017-12-20T03:08:12.869Z,9.03
2017-12-20T03:10:40.336Z,14.50
2017-12-20T03:13:07.788Z,9.90
2017-12-20T03:15:35.260Z,14.63
2017-12-20T03:18:02.777Z,9.60
2017-12-20T03:20:30.279Z,13.37
2017-12-20T03:22:57.724Z,12.70
2017-12-20T03:25:25.171Z,14.10
2017-12-20T03:27:52.648Z,11.00
2017-12-20T03:30:20.096Z,12.40
2017-12-20T03:32:47.576Z,10.07
2017-12-20T03:35:15.024Z,10.53
2017-12-20T03:37:42.516Z,10.40
2017-12-20T03:40:09.955Z,8.53
2017-12-20T03:42:37.419Z,12.90
2017-12-20T03:45:04.885Z,12.50
2017-12-20T03:47:32.343Z,13.37
2017-12-20T03:49:59.788Z,8.40
2017-12-20T03:52:27.313Z,10.43
2017-12-20T03:54:54.773Z,10.13
2017-12-20T03:57:22.286Z,10.63
2017-12-20T03:59:49.775Z,7.47
2017-12-20T04:02:17.285Z,8.93
2017-12-20T04:04:44.728Z,9.07
2017-12-20T04:07:12.184Z,9.30
2017-12-20T04:09:39.716Z,14.73
2017-12-20T04:12:07.219Z,8.43
2017-12-20T04:14:34.681Z,8.00
2017-12-20T04:17:02.160Z,8.20
2017-12-20T04:19:29.624Z,7.40
2017-12-20T04:21:57.079Z,7.60
2017-12-20T04:24:24.556Z,8.37
2017-12-20T04:26:52.011Z,13.13
2017-12-20T04:29:19.470Z,8.50
2017-12-20T04:31:46.919Z,11.13
2017-12-20T04:34:14.429Z,7.70
2017-12-20T04:36:41.886Z,9.07
2017-12-20T04:39:09.339Z,10.67
2017-12-20T04:41:36.811Z,8.80
2017-12-20T04:44:04.259Z,13.03
2017-12-20T04:46:31.724Z,14.50
2017-12-20T04:48:59.172Z,11.10
2017-12-20T04:51:26.636Z,11.00
2017-12-20T04:53:54.088Z,9.07
2017-12-20T04:56:21.563Z,8.07
2017-12-20T04:58:49.076Z,9.70
2017-12-20T05:01:16.555Z,9.93
2017-12-20T05:03:44.051Z,9.40
2017-12-20T05:06:11.561Z,9.17
2017-12-20T05:08:39.003Z,8.80
2017-12-20T05:11:06.447Z,18.03
2017-12-20T05:13:33.916Z,7.43
2017-12-20T05:16:01.386Z,10.07
2017-12-20T05:18:28.953Z,8.33
2017-12-20T05:20:56.405Z,9.13
2017-12-20T05:23:23.967Z,11.87
2017-12-20T05:25:51.432Z,8.13
2017-12-20T05:28:18.904Z,9.57
2017-12-20T05:30:46.404Z,11.13
2017-12-20T05:33:13.896Z,12.70
2017-12-20T05:35:41.351Z,10.23
2017-12-20T05:38:08.815Z,14.53
2017-12-20T05:40:36.263Z,9.50
2017-12-20T05:43:03.793Z,10.57
2017-12-20T05:45:31.243Z,12.27
2017-12-20T05:47:58.692Z,8.93
2017-12-20T05:50:26.164Z,10.00
2017-12-20T05:52:53.640Z,9.53
2017-12-20T05:55:21.135Z,12.17
2017-12-20T05:57:48.605Z,9.73
2017-12-20T06:00:16.079Z,10.03
2017-12-20T06:02:43.540Z,10.53
2017-12-20T06:05:11.011Z,12.77
2017-12-20T06:07:38.488Z,19.73
2017-12-20T06:10:06.001Z,10.07
2017-12-20T06:12:33.456Z,10.90
2017-12-20T06:15:00.938Z,11.00
2017-12-20T06:17:28.516Z,14.23
2017-12-20T06:19:56.012Z,9.57
2017-12-20T06:22:23.467Z,11.80
2017-12-20T06:24:50.912Z,9.77
2017-12-20T06:27:18.397Z,10.83
2017-12-20T06:29:45.846Z,9.80
2017-12-20T06:32:13.330Z,9.77
2017-12-20T06:34:40.776Z,12.77
2017-12-20T06:37:08.252Z,10.47
2017-12-20T06:39:35.690Z,9.33
2017-12-20T06:42:03.167Z,9.17
2017-12-20T06:44:30.635Z,8.67
2017-12-20T06:46:58.109Z,10.03
2017-12-20T06:49:25.606Z,9.50
2017-12-20T06:51:53.214Z,8.63
2017-12-20T06:54:20.670Z,13.77
2017-12-20T06:56:48.155Z,10.60
2017-12-20T06:59:15.599Z,11.70
2017-12-20T07:01:43.083Z,10.00
2017-12-20T07:04:10.542Z,10.97
2017-12-20T07:06:37.992Z,9.13
2017-12-20T07:09:05.493Z,13.33
2017-12-20T07:11:32.945Z,10.20
2017-12-20T07:14:00.422Z,9.80
2017-12-20T07:16:27.880Z,14.00
2017-12-20T07:18:55.356Z,10.17
2017-12-20T07:21:22.803Z,9.40
2017-12-20T07:23:50.292Z,9.10
2017-12-20T07:26:17.740Z,9.93
2017-12-20T07:28:45.217Z,14.03
2017-12-20T07:31:12.670Z,9.30
2017-12-20T07:33:40.147Z,9.37
2017-12-20T07:36:07.616Z,8.50
2017-12-20T07:38:35.072Z,9.23
2017-12-20T07:41:02.537Z,9.63
2017-12-20T07:43:29.987Z,12.13
2017-12-20T07:45:57.461Z,10.00
2017-12-20T07:48:24.913Z,9.73
2017-12-20T07:50:52.427Z,9.43
2017-12-20T07:53:19.877Z,8.93
2017-12-20T07:55:47.448Z,7.13
2017-12-20T07:58:14.900Z,11.20
2017-12-20T08:00:42.381Z,10.90
2017-12-20T08:03:09.824Z,8.07
2017-12-20T08:05:37.307Z,8.53
2017-12-20T08:08:04.761Z,8.63
2017-12-20T08:10:32.236Z,9.63
2017-12-20T08:12:59.676Z,7.10
2017-12-20T08:15:27.144Z,12.90
2017-12-20T08:17:54.596Z,8.87
2017-12-20T08:20:22.068Z,8.87
2017-12-20T08:22:49.614Z,11.33
2017-12-20T08:25:17.083Z,10.53
2017-12-20T08:27:44.543Z,8.00
2017-12-20T08:30:12.038Z,11.03
2017-12-20T08:32:39.523Z,11.10
2017-12-20T08:35:06.972Z,12.03
2017-12-20T08:37:34.445Z,8.60
2017-12-20T08:40:01.902Z,11.30
2017-12-20T08:42:29.424Z,8.83
2017-12-20T08:44:56.855Z,11.77
2017-12-20T08:47:24.337Z,9.47
2017-12-20T08:49:51.812Z,11.40
2017-12-20T08:52:19.305Z,13.50
2017-12-20T08:54:46.761Z,10.43
2017-12-20T08:57:14.241Z,9.73
2017-12-20T08:59:41.690Z,8.93
2017-12-20T09:02:12.201Z,8.43
2017-12-20T09:04:40.890Z,12.73
2017-12-20T09:07:09.242Z,7.60
2017-12-20T09:09:37.676Z,7.83
2017-12-20T09:12:06.965Z,7.70
2017-12-20T09:14:35.019Z,7.97
2017-12-20T09:17:03.497Z,8.27
2017-12-20T09:19:31.607Z,9.40
2017-12-20T09:22:00.283Z,8.73
2017-12-20T09:24:28.670Z,11.43
2017-12-20T09:26:57.016Z,9.03
2017-12-20T09:29:27.171Z,10.40
2017-12-20T09:31:55.705Z,7.97
2017-12-20T09:34:24.303Z,7.53
2017-12-20T09:36:52.584Z,9.97
2017-12-20T09:39:21.890Z,8.10
2017-12-20T09:41:50.452Z,8.13
2017-12-20T09:44:19.795Z,7.57
2017-12-20T09:46:48.151Z,7.10
2017-12-20T09:49:16.892Z,9.47
2017-12-20T09:51:45.335Z,11.20
2017-12-20T09:54:13.488Z,8.00
2017-12-20T09:56:43.108Z,8.30
2017-12-20T09:59:13.180Z,7.80
2017-12-20T10:01:41.540Z,8.73
2017-12-20T10:04:10.523Z,10.67
2017-12-20T10:06:39.065Z,8.10
2017-12-20T10:09:07.897Z,9.00
2017-12-20T10:11:36.080Z,7.60
2017-12-20T10:14:05.860Z,8.50
2017-12-20T10:16:33.367Z,8.00
2017-12-20T10:19:00.839Z,6.93
2017-12-20T10:21:28.357Z,6.57
2017-12-20T10:23:55.776Z,9.13
2017-12-20T10:26:23.247Z,7.30
2017-12-20T10:28:50.753Z,8.80
2017-12-20T10:31:18.231Z,14.50
2017-12-20T10:33:45.770Z,11.87
2017-12-20T10:36:13.278Z,13.53
2017-12-20T10:38:40.748Z,16.60
2017-12-20T10:41:08.223Z,16.07
2017-12-20T10:43:35.676Z,17.73
2017-12-20T10:46:03.145Z,15.90
2017-12-20T10:48:30.604Z,12.17
2017-12-20T10:50:58.183Z,12.50
2017-12-20T10:53:25.644Z,18.30
2017-12-20T10:55:53.668Z,21.27
2017-12-20T10:58:21.135Z,20.50
2017-12-20T11:00:48.596Z,16.10
2017-12-20T11:03:16.093Z,12.63
2017-12-20T11:05:43.547Z,11.10
2017-12-20T11:08:11.026Z,14.73
2017-12-20T11:10:38.476Z,21.33
2017-12-20T11:13:05.957Z,13.23
2017-12-20T11:15:33.457Z,11.73
2017-12-20T11:18:00.987Z,13.13
2017-12-20T11:20:28.439Z,14.83
2017-12-20T11:22:55.912Z,14.47
2017-12-20T11:25:23.382Z,9.50
2017-12-20T11:27:50.851Z,7.10
2017-12-20T11:30:18.309Z,5.77
2017-12-20T11:32:45.859Z,6.50
2017-12-20T11:35:13.403Z,7.33
2017-12-20T11:37:40.869Z,6.37
2017-12-20T11:40:08.344Z,5.40
2017-12-20T11:42:35.787Z,7.27
2017-12-20T11:45:03.284Z,8.93
2017-12-20T11:47:30.780Z,8.50
2017-12-20T11:49:58.258Z,8.43
2017-12-20T11:52:25.755Z,9.40
2017-12-20T11:54:53.231Z,6.53
2017-12-20T11:57:20.685Z,6.63
2017-12-20T11:59:48.154Z,6.77
2017-12-20T12:02:15.650Z,7.63
2017-12-20T12:04:43.141Z,8.00
2017-12-20T12:07:10.599Z,7.50
2017-12-20T12:09:38.075Z,7.80
2017-12-20T12:12:05.527Z,7.43
2017-12-20T12:14:32.988Z,7.73
2017-12-20T12:17:00.441Z,7.33
2017-12-20T12:19:27.914Z,6.40
2017-12-20T12:21:55.369Z,7.80
2017-12-20T12:24:22.819Z,5.77
2017-12-20T12:26:50.393Z,6.07
2017-12-20T12:29:17.845Z,7.03
2017-12-20T12:31:45.307Z,6.23
2017-12-20T12:34:12.763Z,5.43
2017-12-20T12:36:40.245Z,5.83
2017-12-20T12:39:07.708Z,5.77
2017-12-20T12:41:35.178Z,5.80
2017-12-20T12:44:02.623Z,5.73
2017-12-20T12:46:30.147Z,7.27
2017-12-20T12:48:57.603Z,6.20
2017-12-20T12:51:25.077Z,6.70
2017-12-20T12:53:52.526Z,6.57
2017-12-20T12:56:20.011Z,6.87
2017-12-20T12:58:47.463Z,7.10
2017-12-20T13:01:14.941Z,6.03
2017-12-20T13:03:42.445Z,6.60
2017-12-20T13:06:09.928Z,6.57
2017-12-20T13:08:37.426Z,6.93
2017-12-20T13:11:04.895Z,6.60
2017-12-20T13:13:32.360Z,5.90
2017-12-20T13:15:59.831Z,4.30
2017-12-20T13:18:27.350Z,5.97
2017-12-20T13:20:54.802Z,5.53
2017-12-20T13:23:22.300Z,5.73
2017-12-20T13:25:49.753Z,5.93
2017-12-20T13:28:17.216Z,6.77
2017-12-20T13:30:44.655Z,6.03
2017-12-20T13:33:12.145Z,12.73
2017-12-20T13:35:39.597Z,6.13
2017-12-20T13:38:07.081Z,6.50
2017-12-20T13:40:34.537Z,6.83
2017-12-20T13:43:02.056Z,7.17
2017-12-20T13:45:29.495Z,7.90
2017-12-20T13:47:56.954Z,7.03
2017-12-20T13:50:24.428Z,7.33
2017-12-20T13:52:51.881Z,6.80
2017-12-20T13:55:19.367Z,7.90
2017-12-20T13:57:46.816Z,7.60
2017-12-20T14:00:14.286Z,6.90
2017-12-20T14:02:41.761Z,7.43
2017-12-20T14:05:09.240Z,8.00
2017-12-20T14:07:36.700Z,8.30
2017-12-20T14:10:04.184Z,10.97
2017-12-20T14:12:31.627Z,7.47
2017-12-20T14:14:59.100Z,7.73
2017-12-20T14:17:26.623Z,6.57
2017-12-20T14:19:54.105Z,8.10
2017-12-20T14:22:21.565Z,8.07
2017-12-20T14:24:49.052Z,7.63
2017-12-20T14:27:16.505Z,7.03
2017-12-20T14:29:43.978Z,9.87
2017-12-20T14:32:11.483Z,7.13
2017-12-20T14:34:38.965Z,7.63
2017-12-20T14:37:06.421Z,7.80
2017-12-20T14:39:33.898Z,7.93
2017-12-20T14:42:01.373Z,8.40
2017-12-20T14:44:28.824Z,8.17
2017-12-20T14:46:56.300Z,7.70
2017-12-20T14:49:23.783Z,7.40
2017-12-20T14:51:51.253Z,7.70
2017-12-20T14:54:18.721Z,7.33
2017-12-20T14:56:46.197Z,8.83
2017-12-20T14:59:13.647Z,7.33
2017-12-20T15:01:41.119Z,9.10
2017-12-20T15:04:08.587Z,8.07
2017-12-20T15:06:36.120Z,8.00
2017-12-20T15:09:03.581Z,9.80
2017-12-20T15:11:31.036Z,8.80
2017-12-20T15:13:58.504Z,8.23
2017-12-20T15:16:25.960Z,8.37
2017-12-20T15:18:53.458Z,9.40
2017-12-20T15:21:20.914Z,7.77
2017-12-20T15:23:48.388Z,7.57
2017-12-20T15:26:15.847Z,7.57
2017-12-20T15:28:43.332Z,8.20
2017-12-20T15:31:10.775Z,8.37
2017-12-20T15:33:38.240Z,8.27
2017-12-20T15:36:05.776Z,8.57
2017-12-20T15:38:33.280Z,8.80
2017-12-20T15:41:00.735Z,8.63
2017-12-20T15:43:28.207Z,8.87
2017-12-20T15:45:55.680Z,9.23
2017-12-20T15:48:23.172Z,8.53
2017-12-20T15:50:50.625Z,8.40
2017-12-20T15:53:18.130Z,8.77
2017-12-20T15:55:45.585Z,9.27
2017-12-20T15:58:13.073Z,9.23
2017-12-20T16:00:40.529Z,8.27
2017-12-20T16:03:07.979Z,8.40
2017-12-20T16:05:35.451Z,8.00
2017-12-20T16:08:02.901Z,8.53
2017-12-20T16:10:30.420Z,9.50
2017-12-20T16:12:57.929Z,5.63
2017-12-20T16:15:25.375Z,7.23
2017-12-20T16:17:52.824Z,7.03
2017-12-20T16:20:20.294Z,6.40
2017-12-20T16:22:47.765Z,14.50
2017-12-20T16:25:15.232Z,7.83
2017-12-20T16:27:42.697Z,11.90
2017-12-20T16:30:10.228Z,21.80
2017-12-20T16:32:37.692Z,48.20
2017-12-20T16:35:05.139Z,22.13
2017-12-20T16:37:32.654Z,14.47
2017-12-20T16:40:00.155Z,11.37
2017-12-20T16:42:27.632Z,19.07
2017-12-20T16:44:55.080Z,11.33
2017-12-20T16:47:22.685Z,9.13
2017-12-20T16:49:50.210Z,10.10
2017-12-20T16:52:17.704Z,9.40
2017-12-20T16:54:45.208Z,17.20
2017-12-20T16:57:12.695Z,15.33
2017-12-20T16:59:40.212Z,16.33
2017-12-20T17:02:07.693Z,10.37
2017-12-20T17:04:35.163Z,11.10
2017-12-20T17:07:02.636Z,10.97
2017-12-20T17:09:30.122Z,14.53
2017-12-20T17:11:57.608Z,10.50
2017-12-20T17:14:25.065Z,8.70
2017-12-20T17:16:52.507Z,9.37
2017-12-20T17:19:19.980Z,10.33
2017-12-20T17:21:47.433Z,10.10
2017-12-20T17:24:14.974Z,9.23
2017-12-20T17:26:42.443Z,13.70
2017-12-20T17:29:09.903Z,9.00
2017-12-20T17:31:37.368Z,10.07
2017-12-20T17:34:04.953Z,10.93
2017-12-20T17:36:32.412Z,9.30
2017-12-20T17:39:00.074Z,10.73
2017-12-20T17:41:27.656Z,10.90
2017-12-20T17:43:55.082Z,10.50
2017-12-20T17:46:22.593Z,9.97
2017-12-20T17:48:51.288Z,9.27
2017-12-20T17:51:18.843Z,9.30
2017-12-20T17:53:46.301Z,11.77
2017-12-20T17:56:13.806Z,9.10
2017-12-20T17:58:41.284Z,10.53
2017-12-20T18:01:08.774Z,40.67
2017-12-20T18:03:36.315Z,17.50
2017-12-20T18:06:03.839Z,11.33
2017-12-20T18:08:31.316Z,21.90
2017-12-20T18:10:58.792Z,21.83
2017-12-20T18:13:26.252Z,27.67
2017-12-20T18:15:53.781Z,11.17
2017-12-20T18:18:21.349Z,22.83
2017-12-20T18:20:48.841Z,11.10
2017-12-20T18:23:16.361Z,15.37
2017-12-20T18:25:44.106Z,12.17
2017-12-20T18:28:11.612Z,21.67
2017-12-20T18:30:39.063Z,16.10
2017-12-20T18:33:06.585Z,15.13
2017-12-20T18:35:34.044Z,16.07
2017-12-20T18:38:01.545Z,12.20
2017-12-20T18:40:29.008Z,17.37
2017-12-20T18:42:56.488Z,12.10
2017-12-20T18:45:24.017Z,17.90
2017-12-20T18:47:51.548Z,16.33
2017-12-20T18:50:19.043Z,13.90
2017-12-20T18:52:46.652Z,22.10
2017-12-20T18:55:14.527Z,13.97
2017-12-20T18:57:41.988Z,24.07
2017-12-20T19:00:09.477Z,61.87
2017-12-20T19:02:36.992Z,21.00
2017-12-20T19:05:04.485Z,18.93
2017-12-20T19:07:31.989Z,14.43
2017-12-20T19:09:59.492Z,15.30
2017-12-20T19:12:26.960Z,18.10
2017-12-20T19:14:54.450Z,17.57
2017-12-20T19:17:21.975Z,14.90
2017-12-20T19:19:49.474Z,17.53
2017-12-20T19:22:16.939Z,14.87
2017-12-20T19:24:44.446Z,14.77
2017-12-20T19:27:11.923Z,14.60
2017-12-20T19:29:39.375Z,18.10
2017-12-20T19:32:06.865Z,12.30
2017-12-20T19:34:34.332Z,22.43
2017-12-20T19:37:01.804Z,13.50
2017-12-20T19:39:29.255Z,11.63
2017-12-20T19:41:56.779Z,16.77
2017-12-20T19:44:24.227Z,31.90
2017-12-20T19:46:51.832Z,34.17
2017-12-20T19:49:19.307Z,22.67
2017-12-20T19:51:50.765Z,23.40
2017-12-20T19:54:30.286Z,17.90
2017-12-20T19:57:05.445Z,12.90
2017-12-20T19:59:34.983Z,14.70
2017-12-20T20:02:04.623Z,18.83
2017-12-20T20:04:36.565Z,16.20
2017-12-20T20:07:07.663Z,14.70
2017-12-20T20:09:43.448Z,17.33
2017-12-20T20:12:17.239Z,15.50
2017-12-20T20:14:47.592Z,21.13
2017-12-20T20:17:15.104Z,15.70
2017-12-20T20:19:45.731Z,21.03
2017-12-20T20:22:16.292Z,16.40
2017-12-20T20:24:44.274Z,15.57
2017-12-20T20:27:11.735Z,12.67
2017-12-20T20:29:39.228Z,16.20
2017-12-20T20:32:06.689Z,17.30
2017-12-20T20:34:34.267Z,16.60
2017-12-20T20:37:01.726Z,13.50
2017-12-20T20:39:29.231Z,17.57
2017-12-20T20:41:56.688Z,17.07
2017-12-20T20:44:24.173Z,13.83
2017-12-20T20:46:51.640Z,14.03
2017-12-20T20:49:19.164Z,13.17
2017-12-20T20:51:46.749Z,17.00
2017-12-20T20:54:14.209Z,15.03
2017-12-20T20:56:41.688Z,16.37
2017-12-20T20:59:09.170Z,16.67
2017-12-20T21:01:36.660Z,24.33
2017-12-20T21:04:06.984Z,13.23
2017-12-20T21:06:43.292Z,21.23
2017-12-20T21:09:16.687Z,13.40
2017-12-20T21:11:50.970Z,17.50
2017-12-20T21:14:18.681Z,14.37
2017-12-20T21:16:46.152Z,19.03
2017-12-20T21:19:16.305Z,18.73
2017-12-20T21:21:43.896Z,14.50
2017-12-20T21:24:11.363Z,16.03
2017-12-20T21:26:39.064Z,15.57
2017-12-20T21:29:06.524Z,16.07
2017-12-20T21:31:33.992Z,23.83
2017-12-20T21:34:01.443Z,25.97
2017-12-20T21:36:29.935Z,22.10
2017-12-20T21:38:57.394Z,19.37
2017-12-20T21:41:24.869Z,27.87
2017-12-20T21:43:52.327Z,25.97
2017-12-20T21:46:19.852Z,16.60
2017-12-20T21:48:47.332Z,24.13
2017-12-20T21:51:14.933Z,17.00
2017-12-20T21:53:42.504Z,16.90
2017-12-20T21:56:10.233Z,23.93
2017-12-20T21:58:37.721Z,20.20
2017-12-20T22:01:05.186Z,22.37
2017-12-20T22:03:32.669Z,21.30
2017-12-20T22:06:00.151Z,18.23
2017-12-20T22:08:27.619Z,21.03
2017-12-20T22:10:55.078Z,31.60
2017-12-20T22:13:22.683Z,20.00
2017-12-20T22:15:50.528Z,25.33
2017-12-20T22:18:18.501Z,20.43
2017-12-20T22:20:46.029Z,28.43
2017-12-20T22:23:13.512Z,21.90
2017-12-20T22:25:40.976Z,16.70
2017-12-20T22:28:08.448Z,22.30
2017-12-20T22:30:35.943Z,40.17
2017-12-20T22:33:03.420Z,24.23
2017-12-20T22:35:30.944Z,31.83
2017-12-20T22:37:58.497Z,27.87
2017-12-20T22:40:25.948Z,36.60
2017-12-20T22:42:53.410Z,24.13
2017-12-20T22:45:20.949Z,32.07
2017-12-20T22:47:48.414Z,28.23
2017-12-20T22:50:15.916Z,28.87
2017-12-20T22:52:43.376Z,28.23
2017-12-20T22:55:10.846Z,22.90
2017-12-20T22:57:38.314Z,21.37
2017-12-20T23:00:05.792Z,19.10
2017-12-20T23:02:33.252Z,23.87
2017-12-20T23:05:00.787Z,21.93
2017-12-20T23:07:28.235Z,23.67
2017-12-20T23:09:55.711Z,28.20
2017-12-20T23:12:23.276Z,27.93
2017-12-20T23:14:52.108Z,25.53
2017-12-20T23:17:19.564Z,19.53
2017-12-20T23:19:47.011Z,24.30
2017-12-20T23:22:14.568Z,25.90
2017-12-20T23:24:42.024Z,22.13
2017-12-20T23:27:09.579Z,26.20
2017-12-20T23:29:37.028Z,24.83
2017-12-20T23:32:04.508Z,25.80
2017-12-20T23:34:31.977Z,35.20
2017-12-20T23:36:59.460Z,29.07
2017-12-20T23:39:26.968Z,19.80
2017-12-20T23:41:54.453Z,18.53
2017-12-20T23:44:21.923Z,19.33
2017-12-20T23:46:49.408Z,27.50
2017-12-20T23:49:16.874Z,31.40
2017-12-20T23:51:44.343Z,24.23
2017-12-20T23:54:11.799Z,20.47
2017-12-20T23:56:39.268Z,21.37
2017-12-20T23:59:06.720Z,21.03
